Time;durP1;ratioP1;P1;durP2;ratioP2;P2;SDS_P1;SDS_P2;PMS_P1;PMS_P2;Temp;Humidity;BMP_temperature;BMP_pressure;BME280_temperature;BME280_humidity;BME280_pressure;Samples;Min_cycle;Max_cycle;Signal;HPM_P1;HPM_P2
2023/05/10 00:01:42;;;;;;;7.95;6.57;;;14.70;82.10;;;;;;5030907;28;20112;-55
2023/05/10 00:04:28;;;;;;;6.68;5.80;;;14.60;82.70;;;;;;5029407;28;20033;-52
2023/05/10 00:07:14;;;;;;;7.38;6.60;;;14.70;82.60;;;;;;5030769;28;20055;-52
2023/05/10 00:10:00;;;;;;;7.75;6.13;;;14.60;82.50;;;;;;5030913;28;20030;-55
2023/05/10 00:12:46;;;;;;;9.18;7.22;;;14.60;82.70;;;;;;5029862;28;20093;-53
2023/05/10 00:15:31;;;;;;;8.23;7.05;;;14.60;82.90;;;;;;5029672;28;20064;-52
2023/05/10 00:18:17;;;;;;;8.88;6.78;;;14.50;83.10;;;;;;5028844;28;20025;-54
2023/05/10 00:21:04;;;;;;;8.35;6.43;;;14.50;83.20;;;;;;5028747;28;20028;-54
2023/05/10 00:23:50;;;;;;;10.32;7.50;;;14.50;83.40;;;;;;5030394;28;20029;-54
2023/05/10 00:26:35;;;;;;;7.40;6.55;;;14.40;83.60;;;;;;5028610;28;20187;-53
2023/05/10 00:29:21;;;;;;;7.32;6.50;;;14.40;84.20;;;;;;5029430;28;20112;-53
2023/05/10 00:32:08;;;;;;;9.75;7.18;;;14.30;84.30;;;;;;5028806;28;20026;-52
2023/05/10 00:34:54;;;;;;;9.32;7.20;;;14.20;84.40;;;;;;5029965;28;20058;-55
2023/05/10 00:37:40;;;;;;;8.77;5.97;;;14.20;84.50;;;;;;5030270;28;20037;-54
2023/05/10 00:40:26;;;;;;;10.25;6.85;;;14.20;84.60;;;;;;5028784;28;20088;-54
2023/05/10 00:43:12;;;;;;;8.73;6.28;;;14.10;84.50;;;;;;5028880;28;20025;-51
2023/05/10 00:45:58;;;;;;;7.60;6.53;;;14.20;84.80;;;;;;5028903;28;20030;-56
2023/05/10 00:48:45;;;;;;;9.95;6.65;;;14.20;84.90;;;;;;5028985;28;20018;-55
2023/05/10 00:51:31;;;;;;;7.03;6.22;;;14.20;84.90;;;;;;5029720;28;20096;-54
2023/05/10 00:54:17;;;;;;;10.60;6.65;;;14.20;84.90;;;;;;5029716;28;20538;-50
2023/05/10 00:57:04;;;;;;;7.82;6.07;;;14.20;84.70;;;;;;5029109;28;20025;-52
2023/05/10 00:59:51;;;;;;;7.70;6.97;;;14.20;85.10;;;;;;5015430;28;20032;-52
2023/05/10 01:02:37;;;;;;;10.52;6.95;;;14.20;84.90;;;;;;5035951;28;20030;-54
2023/05/10 01:05:23;;;;;;;7.28;6.57;;;14.20;85.00;;;;;;5034300;28;20044;-56
2023/05/10 01:08:09;;;;;;;7.80;7.00;;;14.10;85.10;;;;;;5032094;28;20567;-54
2023/05/10 01:10:55;;;;;;;7.20;6.50;;;14.10;85.30;;;;;;5032046;28;20112;-55
2023/05/10 01:13:42;;;;;;;8.07;6.55;;;14.00;85.80;;;;;;5032362;28;20406;-53
2023/05/10 01:16:33;;;;;;;7.55;6.20;;;14.00;86.30;;;;;;5032842;28;20029;-53
2023/05/10 01:19:24;;;;;;;8.35;7.10;;;13.90;86.40;;;;;;5033852;28;20033;-55
2023/05/10 01:22:38;;;;;;;7.72;6.40;;;14.00;86.10;;;;;;5033763;28;20061;-53
2023/05/10 01:25:34;;;;;;;9.60;7.30;;;14.00;86.20;;;;;;5034343;28;20026;-53
2023/05/10 01:28:47;;;;;;;7.80;6.68;;;14.00;86.10;;;;;;5032470;28;20025;-54
2023/05/10 01:31:51;;;;;;;8.20;6.57;;;14.00;86.00;;;;;;5036617;28;20047;-55
2023/05/10 01:35:10;;;;;;;8.80;6.63;;;13.90;86.40;;;;;;5033727;28;20049;-54
2023/05/10 01:38:00;;;;;;;9.98;7.45;;;13.80;86.60;;;;;;5032474;28;20026;-51
2023/05/10 01:41:18;;;;;;;8.50;7.38;;;13.80;86.90;;;;;;5035836;28;20061;-54
2023/05/10 01:44:32;;;;;;;10.82;7.55;;;13.80;86.80;;;;;;5035138;28;20030;-54
2023/05/10 01:47:31;;;;;;;8.95;6.72;;;13.80;87.00;;;;;;5032933;28;20072;-54
2023/05/10 01:50:22;;;;;;;8.32;7.50;;;13.80;87.10;;;;;;5033391;28;20036;-50
2023/05/10 01:53:10;;;;;;;8.07;6.82;;;13.70;87.30;;;;;;5033676;28;20061;-49
2023/05/10 01:55:58;;;;;;;7.95;7.10;;;13.80;87.30;;;;;;5032478;28;20607;-47
2023/05/10 01:58:48;;;;;;;9.43;7.25;;;13.90;87.10;;;;;;5032885;28;20099;-49
2023/05/10 02:01:36;;;;;;;9.93;6.85;;;13.90;87.00;;;;;;5033530;28;20021;-51
2023/05/10 02:04:25;;;;;;;7.45;6.70;;;13.90;87.00;;;;;;5032986;28;20029;-49
2023/05/10 02:07:11;;;;;;;10.88;6.97;;;13.80;87.20;;;;;;5032697;28;20036;-49
2023/05/10 02:09:58;;;;;;;7.03;6.32;;;13.80;87.20;;;;;;5032918;28;20033;-49
2023/05/10 02:12:47;;;;;;;7.25;6.53;;;13.70;87.60;;;;;;5032543;28;20494;-48
2023/05/10 02:15:35;;;;;;;8.80;6.50;;;13.70;87.30;;;;;;5032759;28;20030;-48
2023/05/10 02:18:23;;;;;;;8.13;6.28;;;13.70;87.50;;;;;;5031978;28;20022;-48
2023/05/10 02:21:10;;;;;;;7.85;6.65;;;13.70;87.60;;;;;;5032770;28;20514;-50
2023/05/10 02:23:57;;;;;;;10.57;7.13;;;13.70;87.70;;;;;;5032900;28;20029;-48
2023/05/10 02:26:45;;;;;;;8.23;6.20;;;13.70;87.50;;;;;;5033176;28;20022;-48
2023/05/10 02:29:33;;;;;;;7.93;6.70;;;13.70;87.70;;;;;;5031964;28;20029;-47
2023/05/10 02:32:20;;;;;;;7.50;6.45;;;13.60;87.70;;;;;;5033691;28;20418;-48
2023/05/10 02:35:08;;;;;;;8.45;6.80;;;13.60;88.10;;;;;;5032588;28;20076;-48
2023/05/10 02:37:56;;;;;;;7.95;6.88;;;13.60;88.40;;;;;;5032770;28;20053;-49
2023/05/10 02:40:44;;;;;;;8.70;7.18;;;13.50;88.60;;;;;;5031826;28;20037;-49
2023/05/10 02:43:33;;;;;;;8.13;7.28;;;13.60;88.90;;;;;;5033632;28;20505;-49
2023/05/10 02:46:19;;;;;;;11.75;8.02;;;13.50;88.90;;;;;;5032433;28;20490;-54
2023/05/10 02:49:05;;;;;;;10.32;8.43;;;13.60;88.80;;;;;;5030876;28;20049;-52
2023/05/10 02:52:02;;;;;;;8.55;7.35;;;13.60;89.00;;;;;;5031808;28;20493;-50
2023/05/10 02:54:51;;;;;;;8.57;7.68;;;13.60;89.00;;;;;;5032253;28;20448;-50
2023/05/10 02:57:41;;;;;;;9.48;6.95;;;13.70;88.90;;;;;;5031477;28;20049;-48
2023/05/10 03:00:28;;;;;;;8.98;7.65;;;13.70;88.80;;;;;;5033085;28;20390;-50
2023/05/10 03:03:14;;;;;;;7.82;7.00;;;13.70;88.80;;;;;;5031329;28;20476;-49
2023/05/10 03:06:00;;;;;;;7.82;6.93;;;13.70;88.80;;;;;;5031642;28;20025;-51
2023/05/10 03:08:46;;;;;;;9.60;6.90;;;13.70;88.80;;;;;;5031509;28;20030;-48
2023/05/10 03:11:49;;;;;;;9.82;7.28;;;13.60;89.00;;;;;;5031393;28;20444;-49
2023/05/10 03:14:57;;;;;;;7.57;6.75;;;13.60;89.20;;;;;;5032209;28;20030;-50
2023/05/10 03:18:05;;;;;;;8.25;7.43;;;13.60;89.00;;;;;;5034186;28;20053;-50
2023/05/10 03:21:02;;;;;;;7.82;6.85;;;13.40;89.50;;;;;;5036471;28;20439;-54
2023/05/10 03:23:53;;;;;;;11.88;7.40;;;13.30;90.00;;;;;;5031916;28;20117;-50
2023/05/10 03:26:39;;;;;;;8.52;7.15;;;13.40;90.00;;;;;;5030914;28;20029;-48
2023/05/10 03:29:27;;;;;;;11.38;7.95;;;13.40;90.00;;;;;;5031603;28;20124;-50
2023/05/10 03:32:13;;;;;;;7.93;7.13;;;13.40;90.00;;;;;;5031839;28;20087;-48
2023/05/10 03:34:59;;;;;;;8.98;8.02;;;13.40;90.00;;;;;;5029986;28;20025;-49
2023/05/10 03:37:45;;;;;;;8.60;6.82;;;13.40;90.10;;;;;;5030114;28;20037;-48
2023/05/10 03:40:31;;;;;;;9.50;6.95;;;13.30;90.10;;;;;;5029918;28;20022;-50
2023/05/10 03:43:17;;;;;;;10.60;7.10;;;13.40;90.20;;;;;;5030697;28;20211;-50
2023/05/10 03:46:04;;;;;;;8.77;7.50;;;13.30;90.30;;;;;;5029457;28;20021;-53
2023/05/10 03:48:50;;;;;;;11.20;7.50;;;13.30;90.30;;;;;;5031393;28;20025;-49
2023/05/10 03:51:36;;;;;;;8.95;7.65;;;13.40;90.30;;;;;;5030662;28;20090;-47
2023/05/10 03:54:22;;;;;;;10.15;7.30;;;13.30;90.30;;;;;;5029927;28;20487;-47
2023/05/10 03:57:09;;;;;;;8.15;7.18;;;13.40;90.30;;;;;;5032733;28;20465;-47
2023/05/10 03:59:55;;;;;;;7.15;6.43;;;13.50;90.20;;;;;;5035804;28;20110;-49
2023/05/10 04:02:41;;;;;;;9.63;7.43;;;13.60;90.20;;;;;;5030634;28;20025;-48
2023/05/10 04:05:27;;;;;;;58.58;36.50;;;13.60;90.20;;;;;;5029792;28;20078;-51
2023/05/10 04:08:14;;;;;;;22.63;16.10;;;13.60;90.20;;;;;;5029412;28;20053;-51
2023/05/10 04:11:08;;;;;;;14.52;10.38;;;13.60;90.20;;;;;;5030999;28;20030;-47
2023/05/10 04:13:53;;;;;;;8.40;7.60;;;13.70;90.30;;;;;;5030571;28;20147;-49
2023/05/10 04:16:39;;;;;;;7.95;7.15;;;13.70;90.30;;;;;;5028723;28;20116;-51
2023/05/10 04:19:30;;;;;;;14.63;7.85;;;13.70;90.50;;;;;;5029167;28;20486;-52
2023/05/10 04:22:16;;;;;;;20.67;8.82;;;13.70;90.50;;;;;;5029470;28;20022;-52
2023/05/10 04:25:02;;;;;;;15.13;7.65;;;13.70;90.40;;;;;;5029177;28;20026;-51
2023/05/10 04:27:47;;;;;;;20.85;8.75;;;13.60;90.50;;;;;;5029655;28;20041;-50
2023/05/10 04:30:33;;;;;;;8.80;7.60;;;13.40;90.70;;;;;;5028859;28;20056;-51
2023/05/10 04:33:19;;;;;;;9.32;7.25;;;13.30;91.10;;;;;;5029769;28;20099;-47
2023/05/10 04:36:05;;;;;;;12.00;8.30;;;13.30;91.50;;;;;;5031067;28;20060;-48
2023/05/10 04:38:51;;;;;;;9.02;7.47;;;13.40;91.30;;;;;;5033350;28;20017;-48
2023/05/10 04:41:38;;;;;;;14.65;8.40;;;13.50;91.10;;;;;;5032501;28;20103;-48
2023/05/10 04:44:24;;;;;;;9.88;7.43;;;13.60;91.20;;;;;;5034274;28;20517;-53
2023/05/10 04:47:10;;;;;;;9.77;7.28;;;13.70;91.10;;;;;;5032768;28;20037;-51
2023/05/10 04:49:57;;;;;;;8.93;8.00;;;13.80;91.30;;;;;;5034328;28;20106;-51
2023/05/10 04:52:43;;;;;;;10.00;7.38;;;13.80;91.10;;;;;;5033648;28;20452;-50
2023/05/10 04:55:29;;;;;;;10.23;7.40;;;13.90;91.10;;;;;;5032409;28;20026;-54
2023/05/10 04:58:15;;;;;;;9.60;6.85;;;14.00;90.80;;;;;;5032491;28;20137;-51
2023/05/10 05:01:08;;;;;;;9.43;7.38;;;13.90;90.70;;;;;;5032780;28;20148;-50
2023/05/10 05:03:54;;;;;;;8.52;7.10;;;13.90;90.90;;;;;;5033651;28;20025;-49
2023/05/10 05:06:40;;;;;;;7.93;7.10;;;13.90;91.00;;;;;;5033465;28;20037;-48
2023/05/10 05:09:26;;;;;;;8.10;7.18;;;14.00;90.80;;;;;;5032215;28;20044;-47
2023/05/10 05:12:13;;;;;;;8.10;7.18;;;14.00;90.70;;;;;;5032221;28;20117;-48
2023/05/10 05:14:59;;;;;;;8.85;7.32;;;14.00;90.80;;;;;;5033221;28;20064;-49
2023/05/10 05:17:45;;;;;;;9.75;7.90;;;13.90;90.50;;;;;;5032419;28;20033;-48
2023/05/10 05:20:34;;;;;;;9.98;7.60;;;13.90;90.80;;;;;;5034047;28;20041;-51
2023/05/10 05:23:24;;;;;;;7.65;6.85;;;13.90;90.80;;;;;;5032597;28;20075;-54
2023/05/10 05:26:10;;;;;;;34.15;11.63;;;14.00;90.70;;;;;;5034181;28;20025;-52
2023/05/10 05:28:56;;;;;;;15.43;7.80;;;14.10;90.90;;;;;;5038443;28;20037;-48
2023/05/10 05:31:42;;;;;;;14.02;6.95;;;14.10;90.70;;;;;;5034197;28;20021;-49
2023/05/10 05:34:28;;;;;;;18.15;8.20;;;14.20;90.90;;;;;;5032972;28;20030;-52
2023/05/10 05:37:15;;;;;;;8.38;6.72;;;14.30;90.90;;;;;;5035528;28;20051;-49
2023/05/10 05:40:01;;;;;;;12.75;7.35;;;14.40;90.60;;;;;;5034589;28;20103;-53
2023/05/10 05:42:47;;;;;;;12.55;6.90;;;14.50;90.40;;;;;;5033295;28;20521;-51
2023/05/10 05:45:33;;;;;;;9.00;6.50;;;14.50;90.40;;;;;;5012657;28;20096;-54
2023/05/10 05:48:19;;;;;;;8.80;6.43;;;14.50;90.40;;;;;;4997645;28;20039;-52
2023/05/10 05:51:05;;;;;;;15.80;7.40;;;14.60;90.40;;;;;;4993364;28;20041;-50
2023/05/10 05:53:51;;;;;;;13.63;7.22;;;14.70;90.30;;;;;;5003976;28;20380;-54
2023/05/10 05:56:37;;;;;;;10.77;6.50;;;14.80;90.30;;;;;;5006098;28;20175;-49
2023/05/10 05:59:23;;;;;;;12.27;6.55;;;14.90;90.30;;;;;;5013205;28;20495;-51
2023/05/10 06:02:10;;;;;;;14.00;7.15;;;14.90;90.20;;;;;;5013022;28;20018;-50
2023/05/10 06:04:56;;;;;;;11.57;7.47;;;15.00;90.10;;;;;;5013596;28;20030;-52
2023/05/10 06:07:42;;;;;;;10.93;6.85;;;15.10;90.00;;;;;;5012518;28;20034;-48
2023/05/10 06:10:28;;;;;;;12.57;8.85;;;15.10;90.00;;;;;;5013965;28;20049;-48
2023/05/10 06:13:14;;;;;;;10.65;6.65;;;15.20;90.00;;;;;;5014535;28;20068;-52
2023/05/10 06:16:01;;;;;;;15.95;7.35;;;15.20;90.00;;;;;;5014625;28;20041;-48
2023/05/10 06:18:47;;;;;;;11.00;6.38;;;15.30;89.60;;;;;;5013570;28;20060;-52
2023/05/10 06:21:32;;;;;;;12.48;6.57;;;15.40;89.70;;;;;;5013444;28;20032;-55
2023/05/10 06:24:18;;;;;;;15.40;6.88;;;15.40;89.80;;;;;;5012952;28;20026;-55
2023/05/10 06:27:05;;;;;;;7.38;6.47;;;15.40;89.60;;;;;;5012299;28;20171;-55
2023/05/10 06:29:51;;;;;;;13.10;7.18;;;15.50;89.50;;;;;;5012475;28;20026;-51
2023/05/10 06:32:37;;;;;;;9.43;6.90;;;15.50;89.20;;;;;;5012285;28;20049;-53
2023/05/10 06:35:23;;;;;;;11.80;6.85;;;15.60;89.40;;;;;;5011297;28;20125;-51
2023/05/10 06:38:10;;;;;;;12.35;7.22;;;15.60;89.50;;;;;;5012567;28;20030;-52
2023/05/10 06:40:56;;;;;;;12.20;7.10;;;15.70;89.20;;;;;;5013180;28;20049;-53
2023/05/10 06:43:43;;;;;;;9.35;7.30;;;15.70;89.40;;;;;;5012990;28;20029;-48
2023/05/10 06:46:29;;;;;;;8.38;6.50;;;15.80;89.30;;;;;;5012442;28;20026;-49
2023/05/10 06:49:15;;;;;;;11.38;6.75;;;15.80;90.00;;;;;;5012274;28;20117;-49
2023/05/10 06:52:01;;;;;;;8.38;6.15;;;15.80;89.50;;;;;;5012750;28;20049;-50
2023/05/10 06:54:47;;;;;;;11.50;6.80;;;15.80;89.60;;;;;;5011955;28;20113;-47
2023/05/10 06:57:33;;;;;;;9.20;6.70;;;15.90;89.60;;;;;;5011053;28;20033;-49
2023/05/10 07:00:19;;;;;;;9.25;6.45;;;15.80;89.80;;;;;;5011412;28;20109;-49
2023/05/10 07:03:05;;;;;;;11.05;6.57;;;15.80;90.10;;;;;;5012788;28;20030;-50
2023/05/10 07:05:51;;;;;;;9.75;7.00;;;15.70;90.10;;;;;;5011724;28;20052;-49
2023/05/10 07:08:37;;;;;;;18.90;8.23;;;15.60;90.50;;;;;;5011660;28;20048;-48
2023/05/10 07:11:23;;;;;;;8.98;6.88;;;15.60;90.60;;;;;;5013085;28;20057;-54
2023/05/10 07:14:09;;;;;;;11.10;7.03;;;15.60;90.80;;;;;;5011980;28;20494;-51
2023/05/10 07:16:55;;;;;;;12.10;6.97;;;15.50;90.80;;;;;;5011733;28;20493;-48
2023/05/10 07:19:41;;;;;;;12.48;7.03;;;15.50;90.90;;;;;;5012275;28;20441;-55
2023/05/10 07:22:27;;;;;;;9.98;6.57;;;15.50;91.10;;;;;;5011989;28;20064;-49
2023/05/10 07:25:13;;;;;;;11.13;7.00;;;15.50;91.30;;;;;;5012067;28;20109;-50
2023/05/10 07:27:59;;;;;;;9.55;7.30;;;15.50;91.40;;;;;;5011950;28;20041;-53
2023/05/10 07:30:46;;;;;;;9.75;6.85;;;15.50;91.50;;;;;;5011883;28;20447;-54
2023/05/10 07:33:32;;;;;;;9.38;6.97;;;15.50;91.60;;;;;;5011910;28;20037;-49
2023/05/10 07:36:18;;;;;;;11.20;7.28;;;15.60;91.80;;;;;;5011461;28;20068;-48
2023/05/10 07:39:04;;;;;;;11.23;7.47;;;15.60;92.10;;;;;;5011570;28;20022;-49
2023/05/10 07:41:50;;;;;;;12.10;7.55;;;15.60;92.10;;;;;;5012175;28;20026;-50
2023/05/10 07:44:36;;;;;;;9.73;7.57;;;15.60;92.50;;;;;;5011647;28;20026;-50
2023/05/10 07:47:23;;;;;;;11.27;8.40;;;15.60;92.80;;;;;;5010695;28;20521;-52
2023/05/10 07:50:09;;;;;;;10.95;7.50;;;15.60;93.40;;;;;;5011464;28;20121;-51
2023/05/10 07:52:55;;;;;;;10.55;7.65;;;15.70;93.70;;;;;;5012787;28;20029;-50
2023/05/10 07:55:41;;;;;;;10.13;7.47;;;15.80;93.70;;;;;;5012632;28;20034;-52
2023/05/10 07:58:27;;;;;;;10.18;7.80;;;15.80;93.90;;;;;;5011673;28;20041;-49
2023/05/10 08:01:13;;;;;;;10.55;7.65;;;15.80;94.30;;;;;;4991810;28;20044;-52
2023/05/10 08:03:59;;;;;;;8.05;7.25;;;15.70;95.10;;;;;;4997315;28;20165;-51
2023/05/10 08:06:45;;;;;;;11.85;8.10;;;15.70;95.20;;;;;;5006890;28;20033;-49
2023/05/10 08:09:31;;;;;;;12.10;8.40;;;15.60;95.40;;;;;;4996964;28;20041;-52
2023/05/10 08:12:17;;;;;;;9.05;8.00;;;15.50;96.00;;;;;;5005456;28;20414;-50
2023/05/10 08:15:04;;;;;;;11.23;7.82;;;15.30;96.50;;;;;;5011558;28;20030;-49
2023/05/10 08:17:52;;;;;;;10.20;8.40;;;15.30;97.20;;;;;;5011006;28;20037;-49
2023/05/10 08:20:38;;;;;;;10.38;8.52;;;15.30;97.80;;;;;;5011439;28;20568;-48
2023/05/10 08:23:24;;;;;;;11.40;8.80;;;15.30;98.10;;;;;;5012393;28;20121;-52
2023/05/10 08:26:10;;;;;;;12.80;9.23;;;15.40;98.60;;;;;;5009933;28;20048;-52
2023/05/10 08:28:56;;;;;;;12.82;9.00;;;15.40;99.00;;;;;;5011671;28;20030;-53
2023/05/10 08:31:42;;;;;;;10.90;9.68;;;15.40;99.30;;;;;;5011931;28;20034;-50
2023/05/10 08:34:28;;;;;;;13.70;8.75;;;15.40;99.70;;;;;;5011743;28;20520;-50
2023/05/10 08:37:14;;;;;;;12.10;8.50;;;15.50;99.90;;;;;;5024287;28;20026;-48
2023/05/10 08:40:00;;;;;;;10.48;9.25;;;15.60;99.90;;;;;;5012218;28;20026;-50
2023/05/10 08:43:07;;;;;;;11.35;8.90;;;15.70;99.90;;;;;;5014043;28;20364;-50
2023/05/10 08:45:54;;;;;;;10.57;9.00;;;15.80;99.90;;;;;;5015735;28;20125;-62
2023/05/10 08:48:41;;;;;;;12.15;9.77;;;15.90;99.90;;;;;;5005120;28;20018;-51
2023/05/10 08:51:30;;;;;;;13.32;9.40;;;15.90;99.90;;;;;;4991984;28;20065;-49
2023/05/10 08:54:16;;;;;;;18.27;9.98;;;16.00;99.90;;;;;;4991663;28;20043;-62
2023/05/10 08:57:02;;;;;;;18.52;9.57;;;16.30;99.90;;;;;;4992017;28;20026;-49
2023/05/10 08:59:49;;;;;;;11.80;8.93;;;16.50;99.90;;;;;;5010160;28;20121;-48
2023/05/10 09:02:37;;;;;;;11.68;9.00;;;16.60;99.90;;;;;;5010403;28;20041;-49
2023/05/10 09:05:23;;;;;;;10.90;8.02;;;16.80;99.90;;;;;;5011258;28;20041;-48
2023/05/10 09:08:09;;;;;;;13.82;9.10;;;16.80;99.90;;;;;;4999488;28;20049;-53
2023/05/10 09:10:56;;;;;;;12.45;9.07;;;16.80;99.90;;;;;;5011536;28;20064;-48
2023/05/10 09:13:43;;;;;;;12.20;8.85;;;16.90;99.90;;;;;;5010443;28;20113;-59
2023/05/10 09:16:29;;;;;;;13.30;8.57;;;17.10;99.90;;;;;;5010298;28;20027;-64
2023/05/10 09:19:15;;;;;;;12.18;8.38;;;17.10;99.90;;;;;;5009885;28;20055;-51
2023/05/10 09:22:02;;;;;;;10.48;9.15;;;17.10;99.90;;;;;;5012805;28;20062;-62
2023/05/10 09:24:49;;;;;;;11.80;9.70;;;17.10;99.90;;;;;;5008873;28;20037;-54
2023/05/10 09:27:35;;;;;;;13.35;9.98;;;17.00;99.90;;;;;;5005275;28;20054;-52
2023/05/10 09:30:29;;;;;;;10.93;9.82;;;16.80;99.90;;;;;;5012376;28;20034;-53
2023/05/10 09:33:18;;;;;;;11.82;9.73;;;16.60;99.90;;;;;;5013856;28;20591;-52
2023/05/10 09:36:08;;;;;;;11.05;9.95;;;16.50;99.90;;;;;;5001521;28;20188;-48
2023/05/10 09:38:54;;;;;;;12.13;10.75;;;16.40;99.90;;;;;;5000601;28;20065;-47
2023/05/10 09:41:42;;;;;;;14.25;10.43;;;16.30;99.90;;;;;;5011319;28;20113;-48
2023/05/10 09:44:28;;;;;;;11.52;10.30;;;16.30;99.90;;;;;;5014835;28;20062;-48
2023/05/10 09:47:18;;;;;;;22.35;18.15;;;16.40;99.90;;;;;;5014286;28;20415;-47
2023/05/10 09:50:05;;;;;;;16.92;12.85;;;16.40;99.90;;;;;;5013883;28;20407;-48
2023/05/10 09:52:52;;;;;;;13.07;10.90;;;16.50;99.90;;;;;;5014394;28;20038;-47
2023/05/10 09:55:44;;;;;;;11.38;10.18;;;16.70;99.90;;;;;;5014591;28;20409;-47
2023/05/10 09:58:30;;;;;;;11.02;9.85;;;16.80;99.90;;;;;;5014072;28;20449;-50
2023/05/10 10:01:16;;;;;;;10.93;9.82;;;16.90;99.90;;;;;;4997617;28;20030;-52
2023/05/10 10:04:07;;;;;;;10.57;9.48;;;17.00;99.90;;;;;;5010774;28;20038;-50
2023/05/10 10:07:03;;;;;;;10.10;7.60;;;17.20;99.90;;;;;;5013364;28;20037;-47
2023/05/10 10:17:15;;;;;;;10.60;8.68;;;17.20;99.90;;;;;;5013374;28;20388;-53
2023/05/10 10:20:03;;;;;;;8.85;7.57;;;17.10;99.90;;;;;;5013505;28;20065;-55
2023/05/10 10:22:49;;;;;;;8.38;7.57;;;17.10;99.90;;;;;;5012445;28;20494;-53
2023/05/10 10:25:35;;;;;;;9.77;7.05;;;17.00;99.90;;;;;;5013445;28;20123;-52
2023/05/10 10:28:35;;;;;;;9.40;7.88;;;17.00;99.90;;;;;;5012921;28;20033;-54
2023/05/10 10:35:47;;;;;;;11.48;8.50;;;17.00;99.90;;;;;;5012450;28;20398;-51
2023/05/10 10:42:46;;;;;;;5.78;5.00;;;16.90;99.90;;;;;;5012432;28;20018;-53
2023/05/10 10:45:31;;;;;;;5.05;4.22;;;16.90;99.90;;;;;;5013980;28;20038;-50
2023/05/10 10:48:22;;;;;;;4.22;3.83;;;16.90;99.90;;;;;;5017099;28;20052;-54
2023/05/10 10:51:08;;;;;;;5.70;4.00;;;17.00;99.90;;;;;;5018040;28;20060;-54
2023/05/10 10:54:08;;;;;;;5.05;3.80;;;16.90;99.90;;;;;;5013024;28;20034;-52
2023/05/10 10:57:13;;;;;;;3.95;3.55;;;16.80;99.90;;;;;;5012681;28;20109;-54
2023/05/10 11:00:20;;;;;;;4.40;4.00;;;16.70;99.90;;;;;;5013154;28;20030;-50
2023/05/10 11:03:08;;;;;;;4.32;3.92;;;16.90;99.90;;;;;;5013226;28;20480;-50
2023/05/10 11:06:01;;;;;;;4.45;3.72;;;16.90;99.90;;;;;;5012459;28;20506;-53
2023/05/10 11:08:47;;;;;;;4.43;3.72;;;16.90;99.90;;;;;;5012485;28;20038;-52
2023/05/10 11:11:35;;;;;;;4.07;3.67;;;17.00;99.90;;;;;;5012406;28;20040;-54
2023/05/10 11:14:22;;;;;;;3.90;3.50;;;17.20;99.90;;;;;;5012113;28;20029;-55
2023/05/10 11:17:31;;;;;;;4.25;3.50;;;17.20;99.90;;;;;;5011423;28;20233;-51
2023/05/10 11:20:22;;;;;;;4.57;3.53;;;17.40;99.90;;;;;;5012202;28;20712;-51
2023/05/10 11:23:15;;;;;;;4.60;3.50;;;17.40;99.90;;;;;;5012152;28;20122;-53
2023/05/10 11:26:01;;;;;;;4.57;3.40;;;17.20;99.90;;;;;;5012931;28;20041;-55
2023/05/10 11:28:48;;;;;;;4.20;3.30;;;17.40;99.90;;;;;;5013233;28;20053;-56
2023/05/10 11:31:34;;;;;;;3.90;3.60;;;17.30;99.90;;;;;;5011605;28;20056;-56
2023/05/10 11:34:37;;;;;;;4.00;3.63;;;17.40;99.90;;;;;;5012497;28;20034;-54
2023/05/10 11:37:23;;;;;;;4.47;3.25;;;17.50;99.90;;;;;;5013567;28;20088;-49
2023/05/10 11:40:10;;;;;;;4.35;3.72;;;17.70;99.90;;;;;;5011947;28;20026;-50
2023/05/10 11:42:56;;;;;;;4.55;3.47;;;17.80;99.90;;;;;;5012322;28;20030;-49
2023/05/10 11:45:42;;;;;;;6.60;3.92;;;17.80;99.90;;;;;;5012687;28;20113;-51
2023/05/10 11:48:29;;;;;;;3.30;2.90;;;17.90;99.90;;;;;;5013033;28;20041;-51
2023/05/10 11:51:19;;;;;;;4.25;3.30;;;17.90;99.90;;;;;;5013712;28;20435;-53
2023/05/10 11:54:08;;;;;;;3.42;3.03;;;17.70;99.90;;;;;;5011519;28;20037;-54
2023/05/10 11:56:54;;;;;;;5.35;4.20;;;17.60;99.90;;;;;;5011392;28;20462;-50
2023/05/10 11:59:40;;;;;;;4.78;3.90;;;17.70;99.90;;;;;;5012195;28;20105;-50
2023/05/10 12:02:26;;;;;;;5.95;3.70;;;17.80;99.90;;;;;;5011741;28;20033;-52
2023/05/10 12:05:13;;;;;;;3.92;3.53;;;17.70;99.90;;;;;;5011902;28;20030;-49
2023/05/10 12:08:12;;;;;;;4.57;3.28;;;17.70;99.90;;;;;;5010470;28;20026;-53
2023/05/10 12:11:07;;;;;;;3.70;3.00;;;17.80;99.90;;;;;;5011949;28;20033;-48
2023/05/10 12:13:55;;;;;;;3.60;3.30;;;17.70;99.90;;;;;;5012214;28;20510;-50
2023/05/10 12:16:43;;;;;;;4.43;3.42;;;17.70;99.90;;;;;;5011815;28;20056;-50
2023/05/10 12:19:41;;;;;;;4.00;3.60;;;17.70;99.90;;;;;;5012095;28;20058;-53
2023/05/10 12:22:26;;;;;;;4.18;3.78;;;17.70;99.90;;;;;;5013068;28;20075;-49
2023/05/10 12:25:13;;;;;;;4.47;4.07;;;17.60;99.90;;;;;;5012050;28;20112;-49
2023/05/10 12:28:02;;;;;;;4.00;3.53;;;17.50;99.90;;;;;;5016988;28;20026;-59
2023/05/10 12:30:48;;;;;;;3.95;3.55;;;17.40;99.90;;;;;;5017974;28;20026;-56
2023/05/10 12:33:45;;;;;;;4.50;3.80;;;17.30;99.90;;;;;;5012680;28;20026;-57
2023/05/10 12:36:31;;;;;;;4.82;3.50;;;17.30;99.90;;;;;;5010890;28;20030;-57
2023/05/10 12:39:17;;;;;;;3.83;3.40;;;17.30;99.90;;;;;;5011450;28;20049;-56
2023/05/10 12:42:03;;;;;;;4.25;3.47;;;17.30;99.90;;;;;;5011482;28;20033;-56
2023/05/10 12:44:49;;;;;;;4.63;3.50;;;17.40;99.90;;;;;;5011313;28;20050;-58
2023/05/10 12:47:35;;;;;;;19.65;16.88;;;17.50;99.90;;;;;;5011654;28;20034;-59
2023/05/10 12:50:21;;;;;;;9.00;8.05;;;17.70;99.90;;;;;;5012190;28;20109;-54
2023/05/10 12:53:10;;;;;;;6.18;5.45;;;17.90;99.90;;;;;;5012158;28;20034;-54
2023/05/10 12:55:56;;;;;;;8.20;5.97;;;18.00;99.90;;;;;;5011642;28;20068;-49
2023/05/10 12:58:47;;;;;;;4.95;4.20;;;18.20;99.90;;;;;;5014916;28;20109;-52
2023/05/10 13:01:33;;;;;;;4.88;3.55;;;18.30;99.90;;;;;;5015183;28;20018;-51
2023/05/10 13:04:19;;;;;;;4.63;3.60;;;18.50;99.90;;;;;;5021461;28;20048;-53
2023/05/10 13:07:08;;;;;;;4.20;3.55;;;18.70;99.90;;;;;;5028378;28;20026;-50
2023/05/10 13:09:54;;;;;;;4.80;3.53;;;18.80;99.90;;;;;;5017404;28;20029;-48
2023/05/10 13:12:40;;;;;;;3.83;3.53;;;18.80;99.90;;;;;;5017268;28;20402;-48
2023/05/10 13:15:26;;;;;;;4.28;3.50;;;18.80;99.90;;;;;;5015857;28;20087;-49
2023/05/10 13:18:12;;;;;;;5.72;3.40;;;18.90;99.90;;;;;;5014764;28;20041;-52
2023/05/10 13:20:58;;;;;;;6.13;5.53;;;19.00;99.90;;;;;;5014931;28;20034;-53
2023/05/10 13:23:44;;;;;;;4.78;4.28;;;19.00;99.90;;;;;;5014157;28;20375;-51
2023/05/10 13:26:30;;;;;;;4.30;3.70;;;19.10;99.90;;;;;;5014658;28;20038;-51
2023/05/10 13:29:17;;;;;;;5.22;4.50;;;19.10;99.90;;;;;;5014985;28;20025;-52
2023/05/10 13:32:04;;;;;;;6.15;5.55;;;19.10;99.90;;;;;;5014939;28;20029;-51
2023/05/10 13:34:50;;;;;;;6.60;5.45;;;19.10;99.90;;;;;;5013865;28;20038;-53
2023/05/10 13:37:37;;;;;;;6.68;5.40;;;19.00;99.90;;;;;;5014550;28;20709;-53
2023/05/10 13:40:23;;;;;;;6.47;5.78;;;19.00;99.90;;;;;;5014868;28;20072;-51
2023/05/10 13:43:08;;;;;;;6.07;5.47;;;19.00;99.90;;;;;;5014749;28;20026;-51
2023/05/10 13:45:54;;;;;;;6.65;5.45;;;18.90;99.90;;;;;;5014088;28;20494;-51
2023/05/10 13:48:40;;;;;;;9.65;8.65;;;18.90;99.90;;;;;;5014931;28;20026;-52
2023/05/10 13:51:26;;;;;;;7.40;6.70;;;18.90;99.90;;;;;;5015050;28;20045;-54
2023/05/10 13:54:13;;;;;;;5.70;5.20;;;18.90;99.90;;;;;;5014956;28;20097;-52
2023/05/10 13:56:59;;;;;;;6.72;5.57;;;19.00;99.90;;;;;;5015062;28;20022;-56
2023/05/10 13:59:45;;;;;;;6.10;5.60;;;19.00;99.90;;;;;;5014795;28;20414;-49
2023/05/10 14:02:31;;;;;;;6.80;5.30;;;19.00;99.90;;;;;;5013781;28;20080;-52
2023/05/10 14:05:17;;;;;;;6.03;5.00;;;19.10;99.90;;;;;;5014231;28;20395;-55
2023/05/10 14:08:03;;;;;;;6.20;5.50;;;19.20;99.90;;;;;;5013564;28;20030;-54
2023/05/10 14:10:50;;;;;;;5.78;5.13;;;19.30;99.90;;;;;;5014852;28;20026;-49
2023/05/10 14:13:36;;;;;;;7.70;5.88;;;19.30;99.90;;;;;;5015894;28;20164;-47
2023/05/10 14:16:22;;;;;;;6.70;4.40;;;19.30;99.90;;;;;;5014683;28;20030;-48
2023/05/10 14:19:09;;;;;;;5.40;4.75;;;19.20;99.90;;;;;;5013743;28;20153;-47
2023/05/10 14:21:55;;;;;;;5.68;5.05;;;19.20;99.90;;;;;;5013632;28;20018;-53
2023/05/10 14:24:41;;;;;;;6.18;5.57;;;19.20;99.90;;;;;;5013272;28;20376;-50
2023/05/10 14:27:27;;;;;;;5.78;4.57;;;19.20;99.90;;;;;;5013205;28;20442;-48
2023/05/10 14:30:15;;;;;;;5.47;4.97;;;19.20;99.90;;;;;;5012654;28;20482;-48
2023/05/10 14:33:02;;;;;;;5.18;4.68;;;19.20;99.90;;;;;;5013084;28;20034;-49
2023/05/10 14:35:48;;;;;;;6.35;5.05;;;19.20;99.90;;;;;;5013633;28;20030;-52
2023/05/10 14:38:34;;;;;;;5.38;4.85;;;19.30;99.90;;;;;;5014443;28;20029;-50
2023/05/10 14:41:20;;;;;;;5.05;4.53;;;19.30;99.90;;;;;;5019110;28;20105;-53
2023/05/10 14:44:06;;;;;;;4.80;4.07;;;19.30;99.90;;;;;;5016348;28;20034;-50
2023/05/10 14:46:52;;;;;;;4.68;4.28;;;19.20;99.90;;;;;;5014016;28;20037;-55